sensor_id;sensor_type;location;lat;lon;timestamp;P1;durP1;ratioP1;P2;durP2;ratioP2
60436;SDS011;46289;51.992;4.498;2023-06-14T00:01:27;8.20;;;3.80;;
60436;SDS011;46289;51.992;4.498;2023-06-14T00:03:37;6.20;;;3.65;;
60436;SDS011;46289;51.992;4.498;2023-06-14T00:05:43;7.28;;;3.75;;
60436;SDS011;46289;51.992;4.498;2023-06-14T00:07:51;8.38;;;3.75;;
60436;SDS011;46289;51.992;4.498;2023-06-14T00:09:56;7.88;;;3.85;;
60436;SDS011;46289;51.992;4.498;2023-06-14T00:12:04;7.00;;;4.13;;
60436;SDS011;46289;51.992;4.498;2023-06-14T00:14:10;5.85;;;3.50;;
60436;SDS011;46289;51.992;4.498;2023-06-14T00:16:15;8.20;;;4.15;;
60436;SDS011;46289;51.992;4.498;2023-06-14T00:18:27;6.75;;;3.60;;
60436;SDS011;46289;51.992;4.498;2023-06-14T00:20:34;8.30;;;4.05;;
60436;SDS011;46289;51.992;4.498;2023-06-14T00:22:39;6.65;;;3.53;;
60436;SDS011;46289;51.992;4.498;2023-06-14T00:24:47;8.85;;;4.18;;
60436;SDS011;46289;51.992;4.498;2023-06-14T00:26:54;7.85;;;4.18;;
60436;SDS011;46289;51.992;4.498;2023-06-14T00:28:59;8.02;;;3.65;;
60436;SDS011;46289;51.992;4.498;2023-06-14T00:31:04;8.25;;;3.95;;
60436;SDS011;46289;51.992;4.498;2023-06-14T00:33:09;8.20;;;3.85;;
60436;SDS011;46289;51.992;4.498;2023-06-14T00:35:15;8.65;;;4.15;;
60436;SDS011;46289;51.992;4.498;2023-06-14T00:37:20;8.45;;;4.10;;
60436;SDS011;46289;51.992;4.498;2023-06-14T00:39:26;7.80;;;3.85;;
60436;SDS011;46289;51.992;4.498;2023-06-14T00:41:37;10.07;;;4.05;;
60436;SDS011;46289;51.992;4.498;2023-06-14T00:43:43;8.07;;;4.10;;
60436;SDS011;46289;51.992;4.498;2023-06-14T00:45:48;8.65;;;4.13;;
60436;SDS011;46289;51.992;4.498;2023-06-14T00:47:53;7.10;;;3.90;;
60436;SDS011;46289;51.992;4.498;2023-06-14T00:49:59;8.85;;;4.10;;
60436;SDS011;46289;51.992;4.498;2023-06-14T00:52:06;6.93;;;4.13;;
60436;SDS011;46289;51.992;4.498;2023-06-14T00:54:15;8.77;;;3.90;;
60436;SDS011;46289;51.992;4.498;2023-06-14T00:56:20;8.80;;;4.05;;
60436;SDS011;46289;51.992;4.498;2023-06-14T00:58:28;7.55;;;3.78;;
60436;SDS011;46289;51.992;4.498;2023-06-14T01:00:35;8.07;;;4.07;;
60436;SDS011;46289;51.992;4.498;2023-06-14T01:02:44;8.80;;;4.35;;
60436;SDS011;46289;51.992;4.498;2023-06-14T01:04:54;9.68;;;4.03;;
60436;SDS011;46289;51.992;4.498;2023-06-14T01:07:00;7.93;;;4.10;;
60436;SDS011;46289;51.992;4.498;2023-06-14T01:09:17;8.55;;;4.35;;
60436;SDS011;46289;51.992;4.498;2023-06-14T01:11:31;8.43;;;4.50;;
60436;SDS011;46289;51.992;4.498;2023-06-14T01:13:45;8.50;;;4.32;;
60436;SDS011;46289;51.992;4.498;2023-06-14T01:15:52;9.02;;;4.43;;
60436;SDS011;46289;51.992;4.498;2023-06-14T01:17:59;8.93;;;4.00;;
60436;SDS011;46289;51.992;4.498;2023-06-14T01:20:11;7.78;;;4.20;;
60436;SDS011;46289;51.992;4.498;2023-06-14T01:22:22;9.57;;;4.35;;
60436;SDS011;46289;51.992;4.498;2023-06-14T01:24:34;7.80;;;4.28;;
60436;SDS011;46289;51.992;4.498;2023-06-14T01:26:40;6.90;;;3.67;;
60436;SDS011;46289;51.992;4.498;2023-06-14T01:28:47;7.68;;;4.65;;
60436;SDS011;46289;51.992;4.498;2023-06-14T01:31:01;6.43;;;3.38;;
60436;SDS011;46289;51.992;4.498;2023-06-14T01:33:11;9.40;;;4.28;;
60436;SDS011;46289;51.992;4.498;2023-06-14T01:35:20;7.40;;;4.07;;
60436;SDS011;46289;51.992;4.498;2023-06-14T01:37:26;8.77;;;4.03;;
60436;SDS011;46289;51.992;4.498;2023-06-14T01:39:34;7.72;;;4.20;;
60436;SDS011;46289;51.992;4.498;2023-06-14T01:41:40;7.20;;;3.80;;
60436;SDS011;46289;51.992;4.498;2023-06-14T01:43:46;14.13;;;4.68;;
60436;SDS011;46289;51.992;4.498;2023-06-14T01:45:53;7.38;;;3.92;;
60436;SDS011;46289;51.992;4.498;2023-06-14T01:48:01;7.00;;;4.18;;
60436;SDS011;46289;51.992;4.498;2023-06-14T01:50:06;9.60;;;4.78;;
60436;SDS011;46289;51.992;4.498;2023-06-14T01:52:11;7.22;;;4.30;;
60436;SDS011;46289;51.992;4.498;2023-06-14T01:54:18;9.45;;;4.45;;
60436;SDS011;46289;51.992;4.498;2023-06-14T01:56:26;7.00;;;3.78;;
60436;SDS011;46289;51.992;4.498;2023-06-14T01:58:31;7.95;;;3.90;;
60436;SDS011;46289;51.992;4.498;2023-06-14T02:00:40;8.18;;;4.35;;
60436;SDS011;46289;51.992;4.498;2023-06-14T02:02:45;9.20;;;4.72;;
60436;SDS011;46289;51.992;4.498;2023-06-14T02:04:55;12.80;;;4.78;;
60436;SDS011;46289;51.992;4.498;2023-06-14T02:07:01;8.63;;;4.68;;
60436;SDS011;46289;51.992;4.498;2023-06-14T02:09:06;9.80;;;4.63;;
60436;SDS011;46289;51.992;4.498;2023-06-14T02:11:11;9.15;;;4.22;;
60436;SDS011;46289;51.992;4.498;2023-06-14T02:13:21;10.00;;;4.35;;
60436;SDS011;46289;51.992;4.498;2023-06-14T02:15:27;7.38;;;4.20;;
60436;SDS011;46289;51.992;4.498;2023-06-14T02:17:36;8.77;;;4.82;;
60436;SDS011;46289;51.992;4.498;2023-06-14T02:19:44;9.75;;;5.18;;
60436;SDS011;46289;51.992;4.498;2023-06-14T02:21:50;9.05;;;4.07;;
60436;SDS011;46289;51.992;4.498;2023-06-14T02:23:55;10.00;;;4.35;;
60436;SDS011;46289;51.992;4.498;2023-06-14T02:26:05;8.20;;;4.22;;
60436;SDS011;46289;51.992;4.498;2023-06-14T02:28:10;7.43;;;4.60;;
60436;SDS011;46289;51.992;4.498;2023-06-14T02:30:18;9.48;;;4.45;;
60436;SDS011;46289;51.992;4.498;2023-06-14T02:32:27;11.35;;;4.57;;
60436;SDS011;46289;51.992;4.498;2023-06-14T02:34:33;8.50;;;4.10;;
60436;SDS011;46289;51.992;4.498;2023-06-14T02:36:38;8.73;;;4.43;;
60436;SDS011;46289;51.992;4.498;2023-06-14T02:38:44;8.38;;;4.15;;
60436;SDS011;46289;51.992;4.498;2023-06-14T02:40:51;10.55;;;4.35;;
60436;SDS011;46289;51.992;4.498;2023-06-14T02:42:58;9.55;;;4.30;;
60436;SDS011;46289;51.992;4.498;2023-06-14T02:45:03;10.48;;;4.53;;
60436;SDS011;46289;51.992;4.498;2023-06-14T02:47:10;8.20;;;4.18;;
60436;SDS011;46289;51.992;4.498;2023-06-14T02:49:15;9.25;;;4.32;;
60436;SDS011;46289;51.992;4.498;2023-06-14T02:51:21;7.40;;;4.20;;
60436;SDS011;46289;51.992;4.498;2023-06-14T02:53:32;9.07;;;4.60;;
60436;SDS011;46289;51.992;4.498;2023-06-14T02:55:39;9.30;;;4.60;;
60436;SDS011;46289;51.992;4.498;2023-06-14T02:57:44;9.02;;;4.82;;
60436;SDS011;46289;51.992;4.498;2023-06-14T02:59:54;12.38;;;4.25;;
60436;SDS011;46289;51.992;4.498;2023-06-14T03:01:59;9.70;;;3.92;;
60436;SDS011;46289;51.992;4.498;2023-06-14T03:04:07;6.75;;;3.88;;
60436;SDS011;46289;51.992;4.498;2023-06-14T03:06:15;7.72;;;3.90;;
60436;SDS011;46289;51.992;4.498;2023-06-14T03:08:20;8.18;;;4.32;;
60436;SDS011;46289;51.992;4.498;2023-06-14T03:10:31;10.57;;;4.47;;
60436;SDS011;46289;51.992;4.498;2023-06-14T03:12:40;8.70;;;4.43;;
60436;SDS011;46289;51.992;4.498;2023-06-14T03:14:45;12.57;;;4.32;;
60436;SDS011;46289;51.992;4.498;2023-06-14T03:16:52;6.70;;;4.00;;
60436;SDS011;46289;51.992;4.498;2023-06-14T03:18:59;9.48;;;4.18;;
60436;SDS011;46289;51.992;4.498;2023-06-14T03:21:07;7.55;;;4.03;;
60436;SDS011;46289;51.992;4.498;2023-06-14T03:23:22;7.82;;;4.40;;
60436;SDS011;46289;51.992;4.498;2023-06-14T03:25:27;7.68;;;3.90;;
60436;SDS011;46289;51.992;4.498;2023-06-14T03:27:37;8.32;;;4.32;;
60436;SDS011;46289;51.992;4.498;2023-06-14T03:29:43;11.40;;;4.28;;
60436;SDS011;46289;51.992;4.498;2023-06-14T03:31:58;8.70;;;4.43;;
60436;SDS011;46289;51.992;4.498;2023-06-14T03:34:04;11.13;;;5.35;;
60436;SDS011;46289;51.992;4.498;2023-06-14T03:36:11;9.63;;;4.35;;
60436;SDS011;46289;51.992;4.498;2023-06-14T03:38:21;8.13;;;4.20;;
60436;SDS011;46289;51.992;4.498;2023-06-14T03:40:29;12.35;;;4.38;;
60436;SDS011;46289;51.992;4.498;2023-06-14T03:42:34;7.97;;;5.10;;
60436;SDS011;46289;51.992;4.498;2023-06-14T03:44:39;9.02;;;3.67;;
60436;SDS011;46289;51.992;4.498;2023-06-14T03:46:45;8.77;;;4.30;;
60436;SDS011;46289;51.992;4.498;2023-06-14T03:48:53;8.05;;;3.88;;
60436;SDS011;46289;51.992;4.498;2023-06-14T03:50:58;9.25;;;3.90;;
60436;SDS011;46289;51.992;4.498;2023-06-14T03:53:06;9.80;;;4.47;;
60436;SDS011;46289;51.992;4.498;2023-06-14T03:55:11;12.60;;;4.70;;
60436;SDS011;46289;51.992;4.498;2023-06-14T03:57:21;9.63;;;4.43;;
60436;SDS011;46289;51.992;4.498;2023-06-14T03:59:26;6.63;;;3.97;;
60436;SDS011;46289;51.992;4.498;2023-06-14T04:01:35;9.10;;;4.75;;
60436;SDS011;46289;51.992;4.498;2023-06-14T04:03:47;11.25;;;4.68;;
60436;SDS011;46289;51.992;4.498;2023-06-14T04:05:52;8.13;;;4.20;;
60436;SDS011;46289;51.992;4.498;2023-06-14T04:07:58;9.88;;;4.00;;
60436;SDS011;46289;51.992;4.498;2023-06-14T04:10:06;8.98;;;4.35;;
60436;SDS011;46289;51.992;4.498;2023-06-14T04:12:14;7.05;;;4.10;;
60436;SDS011;46289;51.992;4.498;2023-06-14T04:14:19;6.97;;;4.00;;
60436;SDS011;46289;51.992;4.498;2023-06-14T04:16:25;9.82;;;3.95;;
60436;SDS011;46289;51.992;4.498;2023-06-14T04:18:31;10.93;;;4.55;;
60436;SDS011;46289;51.992;4.498;2023-06-14T04:20:36;10.25;;;4.32;;
60436;SDS011;46289;51.992;4.498;2023-06-14T04:22:42;9.43;;;4.10;;
60436;SDS011;46289;51.992;4.498;2023-06-14T04:24:47;12.00;;;4.25;;
60436;SDS011;46289;51.992;4.498;2023-06-14T04:27:08;6.80;;;3.78;;
60436;SDS011;46289;51.992;4.498;2023-06-14T04:29:16;8.38;;;4.50;;
60436;SDS011;46289;51.992;4.498;2023-06-14T04:31:21;7.93;;;3.85;;
60436;SDS011;46289;51.992;4.498;2023-06-14T04:33:29;8.50;;;3.75;;
60436;SDS011;46289;51.992;4.498;2023-06-14T04:35:34;10.35;;;3.63;;
60436;SDS011;46289;51.992;4.498;2023-06-14T04:37:40;8.32;;;4.13;;
60436;SDS011;46289;51.992;4.498;2023-06-14T04:39:46;10.52;;;4.00;;
60436;SDS011;46289;51.992;4.498;2023-06-14T04:41:53;7.72;;;3.80;;
60436;SDS011;46289;51.992;4.498;2023-06-14T04:44:01;8.00;;;3.80;;
60436;SDS011;46289;51.992;4.498;2023-06-14T04:46:08;8.18;;;3.88;;
60436;SDS011;46289;51.992;4.498;2023-06-14T04:48:20;6.95;;;3.83;;
60436;SDS011;46289;51.992;4.498;2023-06-14T04:50:26;7.85;;;3.95;;
60436;SDS011;46289;51.992;4.498;2023-06-14T04:52:34;8.80;;;4.00;;
60436;SDS011;46289;51.992;4.498;2023-06-14T04:54:39;8.45;;;3.85;;
60436;SDS011;46289;51.992;4.498;2023-06-14T04:56:45;9.05;;;3.83;;
60436;SDS011;46289;51.992;4.498;2023-06-14T04:58:50;8.38;;;3.97;;
60436;SDS011;46289;51.992;4.498;2023-06-14T05:00:58;7.32;;;3.67;;
60436;SDS011;46289;51.992;4.498;2023-06-14T05:03:04;8.13;;;3.50;;
60436;SDS011;46289;51.992;4.498;2023-06-14T05:05:10;8.07;;;3.72;;
60436;SDS011;46289;51.992;4.498;2023-06-14T05:07:18;8.50;;;3.42;;
60436;SDS011;46289;51.992;4.498;2023-06-14T05:09:25;7.10;;;3.90;;
60436;SDS011;46289;51.992;4.498;2023-06-14T05:11:30;8.25;;;3.88;;
60436;SDS011;46289;51.992;4.498;2023-06-14T05:13:35;9.68;;;3.83;;
60436;SDS011;46289;51.992;4.498;2023-06-14T05:15:41;8.90;;;3.83;;
60436;SDS011;46289;51.992;4.498;2023-06-14T05:17:49;8.05;;;4.25;;
60436;SDS011;46289;51.992;4.498;2023-06-14T05:19:57;7.20;;;3.58;;
60436;SDS011;46289;51.992;4.498;2023-06-14T05:22:02;7.35;;;3.35;;
60436;SDS011;46289;51.992;4.498;2023-06-14T05:24:08;6.70;;;4.15;;
60436;SDS011;46289;51.992;4.498;2023-06-14T05:26:15;6.80;;;3.72;;
60436;SDS011;46289;51.992;4.498;2023-06-14T05:28:20;5.82;;;3.63;;
60436;SDS011;46289;51.992;4.498;2023-06-14T05:30:27;9.27;;;4.03;;
60436;SDS011;46289;51.992;4.498;2023-06-14T05:32:35;8.00;;;3.90;;
60436;SDS011;46289;51.992;4.498;2023-06-14T05:34:46;7.38;;;3.65;;
60436;SDS011;46289;51.992;4.498;2023-06-14T05:36:52;7.25;;;3.53;;
60436;SDS011;46289;51.992;4.498;2023-06-14T05:39:00;9.45;;;4.50;;
60436;SDS011;46289;51.992;4.498;2023-06-14T05:41:06;8.82;;;3.92;;
60436;SDS011;46289;51.992;4.498;2023-06-14T05:43:11;6.60;;;3.35;;
60436;SDS011;46289;51.992;4.498;2023-06-14T05:45:16;6.72;;;3.88;;
60436;SDS011;46289;51.992;4.498;2023-06-14T05:47:24;7.82;;;3.45;;
60436;SDS011;46289;51.992;4.498;2023-06-14T05:49:30;7.75;;;3.47;;
60436;SDS011;46289;51.992;4.498;2023-06-14T05:51:38;7.90;;;3.70;;
60436;SDS011;46289;51.992;4.498;2023-06-14T05:53:43;7.82;;;3.10;;
60436;SDS011;46289;51.992;4.498;2023-06-14T05:55:48;8.38;;;4.05;;
60436;SDS011;46289;51.992;4.498;2023-06-14T05:58:00;6.22;;;3.53;;
60436;SDS011;46289;51.992;4.498;2023-06-14T06:00:06;7.53;;;3.88;;
60436;SDS011;46289;51.992;4.498;2023-06-14T06:02:17;8.97;;;3.73;;
60436;SDS011;46289;51.992;4.498;2023-06-14T06:04:22;7.28;;;3.72;;
60436;SDS011;46289;51.992;4.498;2023-06-14T06:06:29;9.70;;;3.90;;
60436;SDS011;46289;51.992;4.498;2023-06-14T06:08:37;7.97;;;3.75;;
60436;SDS011;46289;51.992;4.498;2023-06-14T06:10:43;7.85;;;3.80;;
60436;SDS011;46289;51.992;4.498;2023-06-14T06:12:48;7.88;;;3.85;;
60436;SDS011;46289;51.992;4.498;2023-06-14T06:14:53;7.65;;;3.53;;
60436;SDS011;46289;51.992;4.498;2023-06-14T06:16:59;8.20;;;3.90;;
60436;SDS011;46289;51.992;4.498;2023-06-14T06:19:04;8.00;;;3.80;;
60436;SDS011;46289;51.992;4.498;2023-06-14T06:21:09;7.93;;;3.65;;
60436;SDS011;46289;51.992;4.498;2023-06-14T06:23:15;9.68;;;3.45;;
60436;SDS011;46289;51.992;4.498;2023-06-14T06:25:25;6.82;;;3.58;;
60436;SDS011;46289;51.992;4.498;2023-06-14T06:27:33;12.23;;;4.75;;
60436;SDS011;46289;51.992;4.498;2023-06-14T06:29:41;7.25;;;3.50;;
60436;SDS011;46289;51.992;4.498;2023-06-14T06:31:52;6.47;;;3.33;;
60436;SDS011;46289;51.992;4.498;2023-06-14T06:33:58;7.45;;;3.67;;
60436;SDS011;46289;51.992;4.498;2023-06-14T06:36:03;11.82;;;3.92;;
60436;SDS011;46289;51.992;4.498;2023-06-14T06:38:10;7.03;;;3.90;;
60436;SDS011;46289;51.992;4.498;2023-06-14T06:40:15;9.90;;;4.05;;
60436;SDS011;46289;51.992;4.498;2023-06-14T06:42:23;8.80;;;3.60;;
60436;SDS011;46289;51.992;4.498;2023-06-14T06:44:28;8.25;;;4.00;;
60436;SDS011;46289;51.992;4.498;2023-06-14T06:46:34;7.78;;;3.75;;
60436;SDS011;46289;51.992;4.498;2023-06-14T06:48:42;7.97;;;4.00;;
60436;SDS011;46289;51.992;4.498;2023-06-14T06:50:47;8.27;;;3.72;;
60436;SDS011;46289;51.992;4.498;2023-06-14T06:52:53;8.50;;;3.58;;
60436;SDS011;46289;51.992;4.498;2023-06-14T06:54:58;8.13;;;3.90;;
60436;SDS011;46289;51.992;4.498;2023-06-14T06:57:03;8.98;;;4.43;;
60436;SDS011;46289;51.992;4.498;2023-06-14T06:59:11;7.45;;;3.45;;
60436;SDS011;46289;51.992;4.498;2023-06-14T07:01:18;7.30;;;3.70;;
60436;SDS011;46289;51.992;4.498;2023-06-14T07:03:23;7.53;;;3.70;;
60436;SDS011;46289;51.992;4.498;2023-06-14T07:05:29;11.45;;;3.88;;
60436;SDS011;46289;51.992;4.498;2023-06-14T07:07:34;6.93;;;3.63;;
60436;SDS011;46289;51.992;4.498;2023-06-14T07:09:39;8.60;;;3.63;;
60436;SDS011;46289;51.992;4.498;2023-06-14T07:11:46;7.47;;;4.13;;
60436;SDS011;46289;51.992;4.498;2023-06-14T07:13:52;6.05;;;3.63;;
60436;SDS011;46289;51.992;4.498;2023-06-14T07:16:00;7.47;;;4.00;;
60436;SDS011;46289;51.992;4.498;2023-06-14T07:18:06;9.07;;;5.00;;
60436;SDS011;46289;51.992;4.498;2023-06-14T07:20:13;7.10;;;4.35;;
60436;SDS011;46289;51.992;4.498;2023-06-14T07:22:19;7.32;;;4.13;;
60436;SDS011;46289;51.992;4.498;2023-06-14T07:24:27;9.00;;;3.97;;
60436;SDS011;46289;51.992;4.498;2023-06-14T07:26:40;8.55;;;3.75;;
60436;SDS011;46289;51.992;4.498;2023-06-14T07:28:46;7.70;;;3.83;;
60436;SDS011;46289;51.992;4.498;2023-06-14T07:30:53;7.97;;;4.00;;
60436;SDS011;46289;51.992;4.498;2023-06-14T07:33:01;9.27;;;3.80;;
60436;SDS011;46289;51.992;4.498;2023-06-14T07:35:06;7.57;;;3.72;;
60436;SDS011;46289;51.992;4.498;2023-06-14T07:37:15;8.73;;;3.90;;
60436;SDS011;46289;51.992;4.498;2023-06-14T07:39:20;8.18;;;3.70;;
60436;SDS011;46289;51.992;4.498;2023-06-14T07:41:25;8.02;;;3.58;;
60436;SDS011;46289;51.992;4.498;2023-06-14T07:43:31;10.25;;;3.88;;
60436;SDS011;46289;51.992;4.498;2023-06-14T07:45:36;8.10;;;3.72;;
60436;SDS011;46289;51.992;4.498;2023-06-14T07:47:54;7.78;;;4.40;;
60436;SDS011;46289;51.992;4.498;2023-06-14T07:50:02;7.90;;;3.92;;
60436;SDS011;46289;51.992;4.498;2023-06-14T07:52:08;8.88;;;4.60;;
60436;SDS011;46289;51.992;4.498;2023-06-14T07:54:15;8.77;;;4.00;;
60436;SDS011;46289;51.992;4.498;2023-06-14T07:56:22;11.38;;;3.80;;
60436;SDS011;46289;51.992;4.498;2023-06-14T07:58:27;7.97;;;4.28;;
60436;SDS011;46289;51.992;4.498;2023-06-14T08:00:33;8.25;;;4.40;;
60436;SDS011;46289;51.992;4.498;2023-06-14T08:02:38;9.25;;;4.30;;
60436;SDS011;46289;51.992;4.498;2023-06-14T08:04:44;7.18;;;4.28;;
60436;SDS011;46289;51.992;4.498;2023-06-14T08:06:55;8.85;;;4.30;;
60436;SDS011;46289;51.992;4.498;2023-06-14T08:09:01;7.32;;;4.05;;
60436;SDS011;46289;51.992;4.498;2023-06-14T08:11:06;6.25;;;3.53;;
60436;SDS011;46289;51.992;4.498;2023-06-14T08:13:11;8.90;;;4.13;;
60436;SDS011;46289;51.992;4.498;2023-06-14T08:15:16;10.32;;;4.53;;
60436;SDS011;46289;51.992;4.498;2023-06-14T08:17:24;7.00;;;3.65;;
60436;SDS011;46289;51.992;4.498;2023-06-14T08:19:29;8.00;;;4.45;;
60436;SDS011;46289;51.992;4.498;2023-06-14T08:21:34;9.25;;;4.20;;
60436;SDS011;46289;51.992;4.498;2023-06-14T08:23:43;9.95;;;4.20;;
60436;SDS011;46289;51.992;4.498;2023-06-14T08:25:49;9.15;;;3.90;;
60436;SDS011;46289;51.992;4.498;2023-06-14T08:27:58;7.13;;;3.70;;
60436;SDS011;46289;51.992;4.498;2023-06-14T08:30:03;7.90;;;3.78;;
60436;SDS011;46289;51.992;4.498;2023-06-14T08:32:09;6.53;;;3.90;;
60436;SDS011;46289;51.992;4.498;2023-06-14T08:34:17;5.95;;;3.90;;
60436;SDS011;46289;51.992;4.498;2023-06-14T08:36:23;10.30;;;4.13;;
60436;SDS011;46289;51.992;4.498;2023-06-14T08:38:31;9.27;;;3.88;;
60436;SDS011;46289;51.992;4.498;2023-06-14T08:40:50;7.60;;;3.58;;
60436;SDS011;46289;51.992;4.498;2023-06-14T08:42:58;8.77;;;3.80;;
60436;SDS011;46289;51.992;4.498;2023-06-14T08:45:03;6.10;;;3.60;;
60436;SDS011;46289;51.992;4.498;2023-06-14T08:47:09;7.07;;;3.80;;
60436;SDS011;46289;51.992;4.498;2023-06-14T08:49:19;7.43;;;4.20;;
60436;SDS011;46289;51.992;4.498;2023-06-14T08:51:27;7.30;;;3.60;;
60436;SDS011;46289;51.992;4.498;2023-06-14T08:53:38;7.65;;;4.03;;
60436;SDS011;46289;51.992;4.498;2023-06-14T08:55:47;9.35;;;3.78;;
60436;SDS011;46289;51.992;4.498;2023-06-14T08:57:55;8.80;;;3.83;;
60436;SDS011;46289;51.992;4.498;2023-06-14T09:00:02;7.95;;;4.13;;
60436;SDS011;46289;51.992;4.498;2023-06-14T09:02:16;7.07;;;3.35;;
60436;SDS011;46289;51.992;4.498;2023-06-14T09:04:24;8.18;;;3.60;;
60436;SDS011;46289;51.992;4.498;2023-06-14T09:06:31;7.88;;;3.80;;
60436;SDS011;46289;51.992;4.498;2023-06-14T09:08:39;7.80;;;3.45;;
60436;SDS011;46289;51.992;4.498;2023-06-14T09:10:47;5.75;;;3.50;;
60436;SDS011;46289;51.992;4.498;2023-06-14T09:12:52;7.55;;;4.05;;
60436;SDS011;46289;51.992;4.498;2023-06-14T09:14:57;9.70;;;3.83;;
60436;SDS011;46289;51.992;4.498;2023-06-14T09:17:07;6.78;;;3.95;;
60436;SDS011;46289;51.992;4.498;2023-06-14T09:19:13;7.30;;;3.60;;
60436;SDS011;46289;51.992;4.498;2023-06-14T09:21:25;6.22;;;3.78;;
60436;SDS011;46289;51.992;4.498;2023-06-14T09:23:33;8.73;;;3.83;;
60436;SDS011;46289;51.992;4.498;2023-06-14T09:25:45;8.25;;;3.75;;
60436;SDS011;46289;51.992;4.498;2023-06-14T09:27:53;8.32;;;3.47;;
60436;SDS011;46289;51.992;4.498;2023-06-14T09:30:00;8.15;;;3.60;;
60436;SDS011;46289;51.992;4.498;2023-06-14T09:32:06;9.75;;;3.45;;
60436;SDS011;46289;51.992;4.498;2023-06-14T09:34:12;8.15;;;3.95;;
60436;SDS011;46289;51.992;4.498;2023-06-14T09:36:25;5.55;;;3.53;;
60436;SDS011;46289;51.992;4.498;2023-06-14T09:38:31;7.72;;;3.33;;
60436;SDS011;46289;51.992;4.498;2023-06-14T09:40:38;10.05;;;3.85;;
60436;SDS011;46289;51.992;4.498;2023-06-14T09:42:46;4.57;;;3.10;;
60436;SDS011;46289;51.992;4.498;2023-06-14T09:44:52;5.82;;;3.35;;
60436;SDS011;46289;51.992;4.498;2023-06-14T09:46:59;6.32;;;3.45;;
60436;SDS011;46289;51.992;4.498;2023-06-14T09:49:04;5.85;;;3.30;;
60436;SDS011;46289;51.992;4.498;2023-06-14T09:51:10;6.47;;;3.55;;
60436;SDS011;46289;51.992;4.498;2023-06-14T09:53:22;4.75;;;3.20;;
60436;SDS011;46289;51.992;4.498;2023-06-14T09:55:30;5.65;;;3.28;;
60436;SDS011;46289;51.992;4.498;2023-06-14T09:57:40;6.10;;;3.35;;
60436;SDS011;46289;51.992;4.498;2023-06-14T09:59:52;5.47;;;3.17;;
60436;SDS011;46289;51.992;4.498;2023-06-14T10:02:04;5.03;;;2.78;;
60436;SDS011;46289;51.992;4.498;2023-06-14T10:04:23;6.20;;;3.00;;
60436;SDS011;46289;51.992;4.498;2023-06-14T10:06:29;6.90;;;3.53;;
60436;SDS011;46289;51.992;4.498;2023-06-14T10:08:35;6.07;;;3.10;;
60436;SDS011;46289;51.992;4.498;2023-06-14T10:10:42;4.93;;;2.97;;
60436;SDS011;46289;51.992;4.498;2023-06-14T10:12:48;6.47;;;2.80;;
60436;SDS011;46289;51.992;4.498;2023-06-14T10:15:02;5.05;;;2.92;;
60436;SDS011;46289;51.992;4.498;2023-06-14T10:17:09;4.90;;;2.92;;
60436;SDS011;46289;51.992;4.498;2023-06-14T10:19:23;5.32;;;2.80;;
60436;SDS011;46289;51.992;4.498;2023-06-14T10:21:41;6.38;;;2.78;;
60436;SDS011;46289;51.992;4.498;2023-06-14T10:24:03;4.78;;;2.70;;
60436;SDS011;46289;51.992;4.498;2023-06-14T10:26:18;4.88;;;2.72;;
60436;SDS011;46289;51.992;4.498;2023-06-14T10:28:29;4.78;;;3.10;;
60436;SDS011;46289;51.992;4.498;2023-06-14T10:30:38;6.47;;;2.58;;
60436;SDS011;46289;51.992;4.498;2023-06-14T10:35:08;5.35;;;2.58;;
60436;SDS011;46289;51.992;4.498;2023-06-14T10:37:20;3.45;;;2.42;;
60436;SDS011;46289;51.992;4.498;2023-06-14T10:39:26;5.03;;;2.55;;
60436;SDS011;46289;51.992;4.498;2023-06-14T10:41:33;6.03;;;2.75;;
60436;SDS011;46289;51.992;4.498;2023-06-14T10:43:40;5.25;;;2.60;;
60436;SDS011;46289;51.992;4.498;2023-06-14T10:48:29;4.47;;;2.95;;
60436;SDS011;46289;51.992;4.498;2023-06-14T10:50:35;5.47;;;2.55;;
60436;SDS011;46289;51.992;4.498;2023-06-14T10:52:47;4.93;;;2.70;;
60436;SDS011;46289;51.992;4.498;2023-06-14T10:54:55;5.57;;;2.72;;
60436;SDS011;46289;51.992;4.498;2023-06-14T10:57:06;4.22;;;2.50;;
60436;SDS011;46289;51.992;4.498;2023-06-14T10:59:14;5.03;;;2.75;;
60436;SDS011;46289;51.992;4.498;2023-06-14T11:01:23;4.38;;;2.53;;
60436;SDS011;46289;51.992;4.498;2023-06-14T11:03:43;5.47;;;2.58;;
60436;SDS011;46289;51.992;4.498;2023-06-14T11:05:59;3.92;;;2.38;;
60436;SDS011;46289;51.992;4.498;2023-06-14T11:08:10;5.55;;;2.63;;
60436;SDS011;46289;51.992;4.498;2023-06-14T11:10:33;4.50;;;2.47;;
60436;SDS011;46289;51.992;4.498;2023-06-14T11:12:41;4.22;;;2.50;;
60436;SDS011;46289;51.992;4.498;2023-06-14T11:14:52;5.18;;;2.65;;
60436;SDS011;46289;51.992;4.498;2023-06-14T11:17:00;4.40;;;2.72;;
60436;SDS011;46289;51.992;4.498;2023-06-14T11:19:05;4.90;;;2.70;;
60436;SDS011;46289;51.992;4.498;2023-06-14T11:21:10;4.05;;;2.45;;
60436;SDS011;46289;51.992;4.498;2023-06-14T11:23:16;3.72;;;2.00;;
60436;SDS011;46289;51.992;4.498;2023-06-14T11:25:24;4.80;;;2.40;;
60436;SDS011;46289;51.992;4.498;2023-06-14T11:27:34;3.58;;;2.30;;
60436;SDS011;46289;51.992;4.498;2023-06-14T11:29:47;5.90;;;2.40;;
60436;SDS011;46289;51.992;4.498;2023-06-14T11:31:52;5.38;;;2.55;;
60436;SDS011;46289;51.992;4.498;2023-06-14T11:34:02;4.25;;;2.35;;
60436;SDS011;46289;51.992;4.498;2023-06-14T11:36:08;3.63;;;2.17;;
60436;SDS011;46289;51.992;4.498;2023-06-14T11:38:13;5.90;;;2.38;;
60436;SDS011;46289;51.992;4.498;2023-06-14T11:40:19;5.90;;;2.40;;
60436;SDS011;46289;51.992;4.498;2023-06-14T11:42:30;4.97;;;2.50;;
60436;SDS011;46289;51.992;4.498;2023-06-14T11:44:35;3.70;;;2.10;;
60436;SDS011;46289;51.992;4.498;2023-06-14T11:46:40;4.13;;;2.20;;
60436;SDS011;46289;51.992;4.498;2023-06-14T11:48:45;6.35;;;2.50;;
60436;SDS011;46289;51.992;4.498;2023-06-14T11:50:53;4.43;;;2.53;;
60436;SDS011;46289;51.992;4.498;2023-06-14T11:53:00;3.38;;;2.00;;
60436;SDS011;46289;51.992;4.498;2023-06-14T11:55:09;5.70;;;2.35;;
60436;SDS011;46289;51.992;4.498;2023-06-14T11:57:15;3.80;;;1.98;;
60436;SDS011;46289;51.992;4.498;2023-06-14T11:59:23;4.65;;;2.33;;
60436;SDS011;46289;51.992;4.498;2023-06-14T12:01:35;4.95;;;2.67;;
60436;SDS011;46289;51.992;4.498;2023-06-14T12:03:47;4.35;;;2.28;;
60436;SDS011;46289;51.992;4.498;2023-06-14T12:06:04;6.78;;;2.22;;
60436;SDS011;46289;51.992;4.498;2023-06-14T12:08:10;5.88;;;2.40;;
60436;SDS011;46289;51.992;4.498;2023-06-14T12:10:19;4.28;;;2.50;;
60436;SDS011;46289;51.992;4.498;2023-06-14T12:12:24;3.72;;;2.30;;
60436;SDS011;46289;51.992;4.498;2023-06-14T12:14:31;3.28;;;2.15;;
60436;SDS011;46289;51.992;4.498;2023-06-14T12:16:37;4.40;;;2.40;;
60436;SDS011;46289;51.992;4.498;2023-06-14T12:18:43;3.75;;;2.13;;
60436;SDS011;46289;51.992;4.498;2023-06-14T12:20:49;3.10;;;2.20;;
60436;SDS011;46289;51.992;4.498;2023-06-14T12:22:59;4.20;;;2.17;;
60436;SDS011;46289;51.992;4.498;2023-06-14T12:25:04;3.63;;;2.10;;
60436;SDS011;46289;51.992;4.498;2023-06-14T12:27:11;4.70;;;2.22;;
60436;SDS011;46289;51.992;4.498;2023-06-14T12:29:22;5.35;;;2.10;;
60436;SDS011;46289;51.992;4.498;2023-06-14T12:31:27;3.58;;;2.13;;
60436;SDS011;46289;51.992;4.498;2023-06-14T12:33:34;4.53;;;2.25;;
60436;SDS011;46289;51.992;4.498;2023-06-14T12:35:39;4.25;;;2.30;;
60436;SDS011;46289;51.992;4.498;2023-06-14T12:37:45;5.80;;;3.20;;
60436;SDS011;46289;51.992;4.498;2023-06-14T12:39:53;3.80;;;2.20;;
60436;SDS011;46289;51.992;4.498;2023-06-14T12:42:00;5.30;;;2.50;;
60436;SDS011;46289;51.992;4.498;2023-06-14T12:44:05;5.85;;;2.55;;
60436;SDS011;46289;51.992;4.498;2023-06-14T12:46:11;5.53;;;2.17;;
60436;SDS011;46289;51.992;4.498;2023-06-14T12:48:16;4.90;;;2.30;;
60436;SDS011;46289;51.992;4.498;2023-06-14T12:50:22;4.63;;;2.40;;
60436;SDS011;46289;51.992;4.498;2023-06-14T12:52:30;6.15;;;2.50;;